Terminal Aerodrome Forecast
Issued by NWS Central Illinois

Home | Current Version | Previous Version | Text Only | Print | Product List | Glossary On
Versions: 1 2 3 4 5 6 7 8 9 10 11 12 13 14 15 16 17 18 19 20 21 22 23 24 25 26
000
FTUS43 KILX 070520
TAFSPI
TAF
KSPI 070520Z 0706/0806 18012KT P6SM VCSH BKN045
      TEMPO 0706/0708 5SM -SHRA HZ BKN025
     FM070800 22008KT 5SM -SHRA BR VCTS SCT012 OVC035CB
     FM071200 01009KT 3SM -RA BR OVC006
     FM071800 02010KT 4SM -RA BR BKN007 OVC015
     FM080000 04012KT P6SM OVC020=

USA.gov is the U.S. government's official web portal to all federal, state and local government web resources and services.